createdAt,value
2023-05-03T00:07:45.633Z,75
2023-05-03T00:17:47.888Z,75
2023-05-03T00:27:49.884Z,76
2023-05-03T00:37:51.629Z,76
2023-05-03T00:47:53.510Z,77
2023-05-03T00:57:55.590Z,77
2023-05-03T01:07:57.571Z,78
2023-05-03T01:17:59.904Z,78
2023-05-03T01:28:01.573Z,78
2023-05-03T01:38:03.528Z,79
2023-05-03T01:48:06.005Z,79
2023-05-03T01:58:08.364Z,79
2023-05-03T02:08:10.345Z,79
2023-05-03T02:28:14.169Z,80
2023-05-03T02:38:16.695Z,80
2023-05-03T02:48:19.092Z,80
2023-05-03T02:58:21.084Z,81
2023-05-03T03:08:23.581Z,81
2023-05-03T03:18:26.201Z,81
2023-05-03T03:28:28.000Z,81
2023-05-03T03:38:30.660Z,82
2023-05-03T03:48:33.185Z,82
2023-05-03T03:58:35.531Z,82
2023-05-03T04:08:37.814Z,83
2023-05-03T04:18:40.208Z,83
2023-05-03T04:28:42.045Z,83
2023-05-03T04:38:44.213Z,83
2023-05-03T04:48:46.564Z,83
2023-05-03T05:18:53.122Z,84
2023-05-03T05:28:54.810Z,83
2023-05-03T05:38:57.351Z,82
2023-05-03T05:48:59.371Z,81
2023-05-03T06:09:13.147Z,76
2023-05-03T06:19:06.395Z,76
2023-05-03T06:29:08.619Z,74
2023-05-03T06:39:11.181Z,73
2023-05-03T06:49:13.089Z,72
2023-05-03T06:59:14.933Z,70
2023-05-03T07:09:16.608Z,68
2023-05-03T07:19:18.723Z,66
2023-05-03T07:29:20.647Z,65
2023-05-03T07:39:23.062Z,64
2023-05-03T07:49:25.627Z,62
2023-05-03T07:59:27.716Z,62
2023-05-03T08:09:29.823Z,60
2023-05-03T08:09:51.746Z,60
2023-05-03T08:29:41.406Z,60
2023-05-03T08:49:45.734Z,58
2023-05-03T09:49:59.310Z,55
2023-05-03T10:00:01.700Z,55
2023-05-03T11:30:21.327Z,50
2023-05-03T11:40:23.730Z,51
2023-05-03T11:50:25.381Z,50
2023-05-03T12:10:30.637Z,49
2023-05-03T12:21:28.085Z,49
2023-05-03T12:30:34.594Z,48
2023-05-03T12:40:36.664Z,48
2023-05-03T12:50:39.516Z,47
2023-05-03T13:00:45.933Z,45
2023-05-03T13:10:42.979Z,45
2023-05-03T13:20:45.102Z,44
2023-05-03T13:30:47.359Z,44
2023-05-03T13:50:51.722Z,42
2023-05-03T14:00:54.327Z,42
2023-05-03T14:10:56.866Z,41
2023-05-03T14:20:58.656Z,41
2023-05-03T14:31:01.014Z,42
2023-05-03T14:41:03.496Z,42
2023-05-03T14:51:05.635Z,41
2023-05-03T15:01:07.460Z,41
2023-05-03T15:11:09.390Z,42
2023-05-03T15:21:11.966Z,42
2023-05-03T15:31:13.725Z,42
2023-05-03T15:41:15.521Z,42
2023-05-03T15:51:17.378Z,42
2023-05-03T16:01:19.334Z,42
2023-05-03T16:11:21.310Z,42
2023-05-03T16:21:23.810Z,41
2023-05-03T16:31:25.930Z,41
2023-05-03T16:41:28.214Z,41
2023-05-03T16:51:30.508Z,41
2023-05-03T17:01:32.911Z,41
2023-05-03T17:11:35.247Z,41
2023-05-03T17:21:36.927Z,42
2023-05-03T17:31:38.779Z,42
2023-05-03T17:41:41.004Z,43
2023-05-03T17:51:42.887Z,43
2023-05-03T18:01:44.982Z,44
2023-05-03T18:11:46.642Z,45
2023-05-03T18:21:48.359Z,45
2023-05-03T18:41:52.235Z,47
2023-05-03T18:51:54.006Z,47
2023-05-03T19:01:56.266Z,48
2023-05-03T19:11:58.257Z,49
2023-05-03T19:22:00.313Z,50
2023-05-03T19:32:02.671Z,50
2023-05-03T19:42:04.708Z,51
2023-05-03T19:52:06.373Z,52
2023-05-03T20:02:08.459Z,52
2023-05-03T20:22:12.782Z,53
2023-05-03T20:32:15.525Z,54
2023-05-03T20:42:17.368Z,55
2023-05-03T20:52:19.205Z,55
2023-05-03T21:02:21.226Z,55
2023-05-03T21:12:22.906Z,56
2023-05-03T21:22:25.513Z,56
2023-05-03T21:32:27.856Z,57
2023-05-03T21:42:29.768Z,58
2023-05-03T21:52:31.834Z,58
2023-05-03T22:02:34.148Z,59
2023-05-03T22:22:38.901Z,60
2023-05-03T22:32:41.420Z,60
2023-05-03T22:42:43.534Z,61
2023-05-03T22:52:45.786Z,61
2023-05-03T23:02:47.652Z,62
2023-05-03T23:12:50.201Z,62
2023-05-03T23:22:51.927Z,63
2023-05-03T23:42:55.934Z,64
2023-05-03T23:52:58.567Z,65
